sensor_id;sensor_type;location;lat;lon;timestamp;P1;durP1;ratioP1;P2;durP2;ratioP2
54145;SDS011;65909;49.422;7.738;2023-06-24T00:02:06;9.27;;;4.00;;
54145;SDS011;65909;49.422;7.738;2023-06-24T00:04:31;8.23;;;5.05;;
54145;SDS011;65909;49.422;7.738;2023-06-24T00:06:56;7.32;;;4.35;;
54145;SDS011;65909;49.422;7.738;2023-06-24T00:09:25;6.78;;;4.72;;
54145;SDS011;65909;49.422;7.738;2023-06-24T00:11:54;8.50;;;4.88;;
54145;SDS011;65909;49.422;7.738;2023-06-24T00:14:21;7.75;;;4.78;;
54145;SDS011;65909;49.422;7.738;2023-06-24T00:16:48;6.70;;;4.68;;
54145;SDS011;65909;49.422;7.738;2023-06-24T00:19:17;6.13;;;4.50;;
54145;SDS011;65909;49.422;7.738;2023-06-24T00:21:46;8.23;;;4.93;;
54145;SDS011;65909;49.422;7.738;2023-06-24T00:24:13;6.85;;;4.32;;
54145;SDS011;65909;49.422;7.738;2023-06-24T00:26:38;6.95;;;5.20;;
54145;SDS011;65909;49.422;7.738;2023-06-24T00:29:04;7.35;;;4.75;;
54145;SDS011;65909;49.422;7.738;2023-06-24T00:31:29;6.85;;;4.30;;
54145;SDS011;65909;49.422;7.738;2023-06-24T00:33:55;7.35;;;5.22;;
54145;SDS011;65909;49.422;7.738;2023-06-24T00:36:20;7.40;;;5.13;;
54145;SDS011;65909;49.422;7.738;2023-06-24T00:38:46;6.95;;;4.55;;
54145;SDS011;65909;49.422;7.738;2023-06-24T00:41:13;9.90;;;5.43;;
54145;SDS011;65909;49.422;7.738;2023-06-24T00:43:40;5.70;;;4.55;;
54145;SDS011;65909;49.422;7.738;2023-06-24T00:46:06;6.30;;;4.75;;
54145;SDS011;65909;49.422;7.738;2023-06-24T00:48:31;6.55;;;5.07;;
54145;SDS011;65909;49.422;7.738;2023-06-24T00:50:57;6.25;;;4.50;;
54145;SDS011;65909;49.422;7.738;2023-06-24T00:53:23;7.93;;;5.30;;
54145;SDS011;65909;49.422;7.738;2023-06-24T00:55:49;6.88;;;4.93;;
54145;SDS011;65909;49.422;7.738;2023-06-24T00:58:17;7.03;;;5.18;;
54145;SDS011;65909;49.422;7.738;2023-06-24T01:00:45;7.95;;;5.75;;
54145;SDS011;65909;49.422;7.738;2023-06-24T01:03:12;7.40;;;5.50;;
54145;SDS011;65909;49.422;7.738;2023-06-24T01:05:38;7.93;;;5.50;;
54145;SDS011;65909;49.422;7.738;2023-06-24T01:08:05;10.45;;;6.43;;
54145;SDS011;65909;49.422;7.738;2023-06-24T01:10:31;7.72;;;5.82;;
54145;SDS011;65909;49.422;7.738;2023-06-24T01:12:57;8.75;;;6.68;;
54145;SDS011;65909;49.422;7.738;2023-06-24T01:15:22;8.05;;;5.93;;
54145;SDS011;65909;49.422;7.738;2023-06-24T01:17:53;8.00;;;5.90;;
54145;SDS011;65909;49.422;7.738;2023-06-24T01:20:25;7.75;;;5.90;;
54145;SDS011;65909;49.422;7.738;2023-06-24T01:26:00;6.75;;;5.53;;
54145;SDS011;65909;49.422;7.738;2023-06-24T01:31:42;6.85;;;5.20;;
54145;SDS011;65909;49.422;7.738;2023-06-24T01:34:15;7.07;;;5.38;;
54145;SDS011;65909;49.422;7.738;2023-06-24T01:39:33;7.95;;;5.57;;
54145;SDS011;65909;49.422;7.738;2023-06-24T01:42:10;7.72;;;5.82;;
54145;SDS011;65909;49.422;7.738;2023-06-24T01:44:37;9.02;;;5.45;;
54145;SDS011;65909;49.422;7.738;2023-06-24T01:47:07;7.60;;;5.90;;
54145;SDS011;65909;49.422;7.738;2023-06-24T01:49:34;6.55;;;5.38;;
54145;SDS011;65909;49.422;7.738;2023-06-24T01:52:05;9.57;;;5.65;;
54145;SDS011;65909;49.422;7.738;2023-06-24T01:54:35;10.32;;;5.85;;
54145;SDS011;65909;49.422;7.738;2023-06-24T01:57:03;8.32;;;5.90;;
54145;SDS011;65909;49.422;7.738;2023-06-24T01:59:32;8.95;;;5.85;;
54145;SDS011;65909;49.422;7.738;2023-06-24T02:02:00;7.72;;;5.68;;
54145;SDS011;65909;49.422;7.738;2023-06-24T02:04:26;8.18;;;5.25;;
54145;SDS011;65909;49.422;7.738;2023-06-24T02:06:59;8.93;;;6.43;;
54145;SDS011;65909;49.422;7.738;2023-06-24T02:09:26;7.47;;;5.45;;
54145;SDS011;65909;49.422;7.738;2023-06-24T02:11:54;6.82;;;5.15;;
54145;SDS011;65909;49.422;7.738;2023-06-24T02:14:21;7.30;;;5.50;;
54145;SDS011;65909;49.422;7.738;2023-06-24T02:16:47;9.40;;;5.53;;
54145;SDS011;65909;49.422;7.738;2023-06-24T02:19:21;9.23;;;5.65;;
54145;SDS011;65909;49.422;7.738;2023-06-24T02:21:47;8.07;;;5.47;;
54145;SDS011;65909;49.422;7.738;2023-06-24T02:24:16;9.57;;;5.60;;
54145;SDS011;65909;49.422;7.738;2023-06-24T02:26:43;8.20;;;5.22;;
54145;SDS011;65909;49.422;7.738;2023-06-24T02:29:10;6.15;;;5.32;;
54145;SDS011;65909;49.422;7.738;2023-06-24T02:31:36;8.40;;;5.65;;
54145;SDS011;65909;49.422;7.738;2023-06-24T02:34:01;5.82;;;4.93;;
54145;SDS011;65909;49.422;7.738;2023-06-24T02:36:27;7.82;;;5.63;;
54145;SDS011;65909;49.422;7.738;2023-06-24T02:38:52;10.20;;;5.68;;
54145;SDS011;65909;49.422;7.738;2023-06-24T02:41:18;8.73;;;5.65;;
54145;SDS011;65909;49.422;7.738;2023-06-24T02:43:43;6.88;;;5.40;;
54145;SDS011;65909;49.422;7.738;2023-06-24T02:46:08;7.93;;;5.47;;
54145;SDS011;65909;49.422;7.738;2023-06-24T02:48:36;8.63;;;6.70;;
54145;SDS011;65909;49.422;7.738;2023-06-24T02:51:02;10.88;;;5.90;;
54145;SDS011;65909;49.422;7.738;2023-06-24T02:53:29;10.27;;;5.80;;
54145;SDS011;65909;49.422;7.738;2023-06-24T02:55:55;7.30;;;5.28;;
54145;SDS011;65909;49.422;7.738;2023-06-24T02:58:22;9.02;;;5.63;;
54145;SDS011;65909;49.422;7.738;2023-06-24T03:00:49;7.53;;;5.55;;
54145;SDS011;65909;49.422;7.738;2023-06-24T03:03:14;8.80;;;6.25;;
54145;SDS011;65909;49.422;7.738;2023-06-24T03:05:40;8.77;;;5.30;;
54145;SDS011;65909;49.422;7.738;2023-06-24T03:08:09;8.77;;;5.63;;
54145;SDS011;65909;49.422;7.738;2023-06-24T03:10:38;7.88;;;5.85;;
54145;SDS011;65909;49.422;7.738;2023-06-24T03:13:04;7.72;;;5.07;;
54145;SDS011;65909;49.422;7.738;2023-06-24T03:15:29;7.85;;;5.70;;
54145;SDS011;65909;49.422;7.738;2023-06-24T03:17:54;8.00;;;5.40;;
54145;SDS011;65909;49.422;7.738;2023-06-24T03:20:20;9.77;;;5.45;;
54145;SDS011;65909;49.422;7.738;2023-06-24T03:22:46;7.57;;;6.25;;
54145;SDS011;65909;49.422;7.738;2023-06-24T03:25:11;10.52;;;6.10;;
54145;SDS011;65909;49.422;7.738;2023-06-24T03:27:37;9.05;;;5.93;;
54145;SDS011;65909;49.422;7.738;2023-06-24T03:30:02;8.35;;;5.45;;
54145;SDS011;65909;49.422;7.738;2023-06-24T03:32:28;8.43;;;6.22;;
54145;SDS011;65909;49.422;7.738;2023-06-24T03:34:53;7.32;;;5.20;;
54145;SDS011;65909;49.422;7.738;2023-06-24T03:37:18;7.88;;;5.40;;
54145;SDS011;65909;49.422;7.738;2023-06-24T03:39:44;8.60;;;5.00;;
54145;SDS011;65909;49.422;7.738;2023-06-24T03:42:10;10.00;;;6.45;;
54145;SDS011;65909;49.422;7.738;2023-06-24T03:44:35;10.20;;;6.03;;
54145;SDS011;65909;49.422;7.738;2023-06-24T03:47:00;7.55;;;5.80;;
54145;SDS011;65909;49.422;7.738;2023-06-24T03:49:26;6.38;;;5.32;;
54145;SDS011;65909;49.422;7.738;2023-06-24T03:51:51;8.18;;;5.43;;
54145;SDS011;65909;49.422;7.738;2023-06-24T03:54:16;6.95;;;5.00;;
54145;SDS011;65909;49.422;7.738;2023-06-24T03:56:42;8.50;;;5.80;;
54145;SDS011;65909;49.422;7.738;2023-06-24T03:59:07;8.45;;;5.82;;
54145;SDS011;65909;49.422;7.738;2023-06-24T04:01:33;9.00;;;6.43;;
54145;SDS011;65909;49.422;7.738;2023-06-24T04:03:58;9.88;;;6.35;;
54145;SDS011;65909;49.422;7.738;2023-06-24T04:06:24;13.23;;;6.00;;
54145;SDS011;65909;49.422;7.738;2023-06-24T04:08:49;10.45;;;5.72;;
54145;SDS011;65909;49.422;7.738;2023-06-24T04:11:17;8.20;;;5.72;;
54145;SDS011;65909;49.422;7.738;2023-06-24T04:13:44;10.27;;;5.75;;
54145;SDS011;65909;49.422;7.738;2023-06-24T04:16:10;8.00;;;5.90;;
54145;SDS011;65909;49.422;7.738;2023-06-24T04:18:35;10.00;;;5.72;;
54145;SDS011;65909;49.422;7.738;2023-06-24T04:21:04;10.40;;;5.85;;
54145;SDS011;65909;49.422;7.738;2023-06-24T04:23:31;9.40;;;4.95;;
54145;SDS011;65909;49.422;7.738;2023-06-24T04:25:56;10.10;;;5.72;;
54145;SDS011;65909;49.422;7.738;2023-06-24T04:28:22;8.75;;;5.82;;
54145;SDS011;65909;49.422;7.738;2023-06-24T04:30:47;6.88;;;5.47;;
54145;SDS011;65909;49.422;7.738;2023-06-24T04:33:13;6.43;;;5.45;;
54145;SDS011;65909;49.422;7.738;2023-06-24T04:35:38;8.88;;;5.07;;
54145;SDS011;65909;49.422;7.738;2023-06-24T04:38:03;7.53;;;5.60;;
54145;SDS011;65909;49.422;7.738;2023-06-24T04:40:29;10.15;;;6.10;;
54145;SDS011;65909;49.422;7.738;2023-06-24T04:42:55;10.30;;;5.90;;
54145;SDS011;65909;49.422;7.738;2023-06-24T04:45:21;9.98;;;5.85;;
54145;SDS011;65909;49.422;7.738;2023-06-24T04:47:47;10.48;;;6.13;;
54145;SDS011;65909;49.422;7.738;2023-06-24T04:50:12;10.07;;;5.63;;
54145;SDS011;65909;49.422;7.738;2023-06-24T04:52:38;9.93;;;6.03;;
54145;SDS011;65909;49.422;7.738;2023-06-24T04:55:04;9.35;;;6.18;;
54145;SDS011;65909;49.422;7.738;2023-06-24T04:57:31;11.27;;;6.05;;
54145;SDS011;65909;49.422;7.738;2023-06-24T04:59:57;8.70;;;5.80;;
54145;SDS011;65909;49.422;7.738;2023-06-24T05:02:23;7.50;;;5.60;;
54145;SDS011;65909;49.422;7.738;2023-06-24T05:04:49;11.68;;;6.72;;
54145;SDS011;65909;49.422;7.738;2023-06-24T05:07:16;8.07;;;6.18;;
54145;SDS011;65909;49.422;7.738;2023-06-24T05:09:41;9.48;;;6.20;;
54145;SDS011;65909;49.422;7.738;2023-06-24T05:12:08;10.20;;;5.82;;
54145;SDS011;65909;49.422;7.738;2023-06-24T05:14:34;10.15;;;5.28;;
54145;SDS011;65909;49.422;7.738;2023-06-24T05:17:00;10.57;;;5.90;;
54145;SDS011;65909;49.422;7.738;2023-06-24T05:19:25;9.15;;;6.32;;
54145;SDS011;65909;49.422;7.738;2023-06-24T05:21:51;7.70;;;5.43;;
54145;SDS011;65909;49.422;7.738;2023-06-24T05:24:16;8.85;;;6.07;;
54145;SDS011;65909;49.422;7.738;2023-06-24T05:26:41;10.15;;;5.95;;
54145;SDS011;65909;49.422;7.738;2023-06-24T05:29:07;8.02;;;6.00;;
54145;SDS011;65909;49.422;7.738;2023-06-24T05:31:32;8.52;;;5.85;;
54145;SDS011;65909;49.422;7.738;2023-06-24T05:33:57;8.25;;;5.88;;
54145;SDS011;65909;49.422;7.738;2023-06-24T05:36:23;9.48;;;6.05;;
54145;SDS011;65909;49.422;7.738;2023-06-24T05:38:48;9.32;;;5.20;;
54145;SDS011;65909;49.422;7.738;2023-06-24T05:41:14;7.13;;;5.28;;
54145;SDS011;65909;49.422;7.738;2023-06-24T05:43:42;7.72;;;5.13;;
54145;SDS011;65909;49.422;7.738;2023-06-24T05:46:08;8.48;;;5.75;;
54145;SDS011;65909;49.422;7.738;2023-06-24T05:48:33;8.13;;;5.30;;
54145;SDS011;65909;49.422;7.738;2023-06-24T05:50:58;7.22;;;5.38;;
54145;SDS011;65909;49.422;7.738;2023-06-24T05:53:24;7.82;;;5.25;;
54145;SDS011;65909;49.422;7.738;2023-06-24T05:55:50;8.25;;;4.82;;
54145;SDS011;65909;49.422;7.738;2023-06-24T05:58:15;7.97;;;5.10;;
54145;SDS011;65909;49.422;7.738;2023-06-24T06:00:40;7.57;;;5.35;;
54145;SDS011;65909;49.422;7.738;2023-06-24T06:03:06;8.48;;;5.65;;
54145;SDS011;65909;49.422;7.738;2023-06-24T06:05:31;8.27;;;5.53;;
54145;SDS011;65909;49.422;7.738;2023-06-24T06:07:56;8.43;;;5.93;;
54145;SDS011;65909;49.422;7.738;2023-06-24T06:10:22;8.50;;;6.03;;
54145;SDS011;65909;49.422;7.738;2023-06-24T06:12:47;8.07;;;5.90;;
54145;SDS011;65909;49.422;7.738;2023-06-24T06:15:13;7.40;;;5.43;;
54145;SDS011;65909;49.422;7.738;2023-06-24T06:17:38;7.55;;;5.32;;
54145;SDS011;65909;49.422;7.738;2023-06-24T06:20:04;8.40;;;6.32;;
54145;SDS011;65909;49.422;7.738;2023-06-24T06:22:29;7.70;;;5.80;;
54145;SDS011;65909;49.422;7.738;2023-06-24T06:24:57;7.38;;;5.72;;
54145;SDS011;65909;49.422;7.738;2023-06-24T06:27:22;6.88;;;5.53;;
54145;SDS011;65909;49.422;7.738;2023-06-24T06:29:47;7.63;;;5.55;;
54145;SDS011;65909;49.422;7.738;2023-06-24T06:32:13;8.35;;;5.40;;
54145;SDS011;65909;49.422;7.738;2023-06-24T06:34:38;9.68;;;5.20;;
54145;SDS011;65909;49.422;7.738;2023-06-24T06:37:03;7.03;;;5.03;;
54145;SDS011;65909;49.422;7.738;2023-06-24T06:39:29;7.43;;;4.88;;
54145;SDS011;65909;49.422;7.738;2023-06-24T06:41:54;8.75;;;4.93;;
54145;SDS011;65909;49.422;7.738;2023-06-24T06:44:20;8.68;;;5.43;;
54145;SDS011;65909;49.422;7.738;2023-06-24T06:46:46;7.40;;;5.13;;
54145;SDS011;65909;49.422;7.738;2023-06-24T06:49:11;7.28;;;5.38;;
54145;SDS011;65909;49.422;7.738;2023-06-24T06:51:37;7.97;;;5.20;;
54145;SDS011;65909;49.422;7.738;2023-06-24T06:54:02;6.25;;;5.40;;
54145;SDS011;65909;49.422;7.738;2023-06-24T06:56:28;6.78;;;5.20;;
54145;SDS011;65909;49.422;7.738;2023-06-24T06:58:54;6.88;;;5.00;;
54145;SDS011;65909;49.422;7.738;2023-06-24T07:01:19;10.25;;;5.10;;
54145;SDS011;65909;49.422;7.738;2023-06-24T07:03:44;5.88;;;4.50;;
54145;SDS011;65909;49.422;7.738;2023-06-24T07:06:10;6.43;;;4.40;;
54145;SDS011;65909;49.422;7.738;2023-06-24T07:08:35;7.07;;;5.28;;
54145;SDS011;65909;49.422;7.738;2023-06-24T07:11:01;8.02;;;4.90;;
54145;SDS011;65909;49.422;7.738;2023-06-24T07:13:27;5.90;;;4.40;;
54145;SDS011;65909;49.422;7.738;2023-06-24T07:15:52;6.63;;;5.00;;
54145;SDS011;65909;49.422;7.738;2023-06-24T07:18:18;6.00;;;4.68;;
54145;SDS011;65909;49.422;7.738;2023-06-24T07:20:43;6.68;;;4.70;;
54145;SDS011;65909;49.422;7.738;2023-06-24T07:23:08;5.82;;;4.72;;
54145;SDS011;65909;49.422;7.738;2023-06-24T07:25:35;5.45;;;4.25;;
54145;SDS011;65909;49.422;7.738;2023-06-24T07:28:00;6.32;;;4.43;;
54145;SDS011;65909;49.422;7.738;2023-06-24T07:30:25;8.88;;;4.45;;
54145;SDS011;65909;49.422;7.738;2023-06-24T07:32:51;6.82;;;4.30;;
54145;SDS011;65909;49.422;7.738;2023-06-24T07:35:16;5.85;;;4.28;;
54145;SDS011;65909;49.422;7.738;2023-06-24T07:37:43;6.15;;;4.50;;
54145;SDS011;65909;49.422;7.738;2023-06-24T07:40:09;8.90;;;5.32;;
54145;SDS011;65909;49.422;7.738;2023-06-24T07:42:35;6.30;;;4.28;;
54145;SDS011;65909;49.422;7.738;2023-06-24T07:45:00;7.13;;;4.20;;
54145;SDS011;65909;49.422;7.738;2023-06-24T07:47:26;7.18;;;3.85;;
54145;SDS011;65909;49.422;7.738;2023-06-24T07:49:51;4.93;;;4.00;;
54145;SDS011;65909;49.422;7.738;2023-06-24T07:52:16;5.85;;;4.15;;
54145;SDS011;65909;49.422;7.738;2023-06-24T07:54:42;5.28;;;4.00;;
54145;SDS011;65909;49.422;7.738;2023-06-24T07:57:07;5.15;;;3.72;;
54145;SDS011;65909;49.422;7.738;2023-06-24T07:59:33;4.07;;;3.53;;
54145;SDS011;65909;49.422;7.738;2023-06-24T08:01:58;5.53;;;4.35;;
54145;SDS011;65909;49.422;7.738;2023-06-24T08:04:24;4.93;;;3.63;;
54145;SDS011;65909;49.422;7.738;2023-06-24T08:06:49;7.90;;;4.07;;
54145;SDS011;65909;49.422;7.738;2023-06-24T08:09:15;4.80;;;3.85;;
54145;SDS011;65909;49.422;7.738;2023-06-24T08:11:42;5.45;;;3.55;;
54145;SDS011;65909;49.422;7.738;2023-06-24T08:14:07;4.18;;;3.65;;
54145;SDS011;65909;49.422;7.738;2023-06-24T08:16:33;5.45;;;4.10;;
54145;SDS011;65909;49.422;7.738;2023-06-24T08:18:58;4.45;;;3.80;;
54145;SDS011;65909;49.422;7.738;2023-06-24T08:21:24;4.10;;;3.63;;
54145;SDS011;65909;49.422;7.738;2023-06-24T08:23:49;5.10;;;4.20;;
54145;SDS011;65909;49.422;7.738;2023-06-24T08:26:15;4.57;;;4.07;;
54145;SDS011;65909;49.422;7.738;2023-06-24T08:28:41;5.65;;;3.47;;
54145;SDS011;65909;49.422;7.738;2023-06-24T08:31:06;5.72;;;3.85;;
54145;SDS011;65909;49.422;7.738;2023-06-24T08:33:31;4.55;;;3.63;;
54145;SDS011;65909;49.422;7.738;2023-06-24T08:35:57;4.20;;;3.67;;
54145;SDS011;65909;49.422;7.738;2023-06-24T08:38:22;5.88;;;3.70;;
54145;SDS011;65909;49.422;7.738;2023-06-24T08:40:47;5.13;;;3.88;;
54145;SDS011;65909;49.422;7.738;2023-06-24T08:43:14;6.45;;;3.90;;
54145;SDS011;65909;49.422;7.738;2023-06-24T08:45:40;5.93;;;3.80;;
54145;SDS011;65909;49.422;7.738;2023-06-24T08:48:05;4.97;;;3.58;;
54145;SDS011;65909;49.422;7.738;2023-06-24T08:50:33;7.20;;;4.35;;
54145;SDS011;65909;49.422;7.738;2023-06-24T08:53:03;4.38;;;3.42;;
54145;SDS011;65909;49.422;7.738;2023-06-24T08:55:32;7.10;;;3.83;;
54145;SDS011;65909;49.422;7.738;2023-06-24T08:58:04;4.57;;;4.03;;
54145;SDS011;65909;49.422;7.738;2023-06-24T09:00:29;4.00;;;3.60;;
54145;SDS011;65909;49.422;7.738;2023-06-24T09:02:55;4.45;;;3.88;;
54145;SDS011;65909;49.422;7.738;2023-06-24T09:05:20;5.47;;;3.35;;
54145;SDS011;65909;49.422;7.738;2023-06-24T09:07:46;4.88;;;3.67;;
54145;SDS011;65909;49.422;7.738;2023-06-24T09:10:28;3.80;;;3.25;;
54145;SDS011;65909;49.422;7.738;2023-06-24T09:12:58;3.55;;;3.25;;
54145;SDS011;65909;49.422;7.738;2023-06-24T09:15:24;5.18;;;3.53;;
54145;SDS011;65909;49.422;7.738;2023-06-24T09:17:50;4.78;;;3.42;;
54145;SDS011;65909;49.422;7.738;2023-06-24T09:20:15;4.57;;;3.53;;
54145;SDS011;65909;49.422;7.738;2023-06-24T09:22:45;4.00;;;3.20;;
54145;SDS011;65909;49.422;7.738;2023-06-24T09:25:13;4.50;;;3.30;;
54145;SDS011;65909;49.422;7.738;2023-06-24T09:27:43;4.22;;;3.08;;
54145;SDS011;65909;49.422;7.738;2023-06-24T09:30:19;4.03;;;3.00;;
54145;SDS011;65909;49.422;7.738;2023-06-24T09:32:46;3.45;;;3.10;;
54145;SDS011;65909;49.422;7.738;2023-06-24T09:35:12;5.00;;;3.53;;
54145;SDS011;65909;49.422;7.738;2023-06-24T09:37:38;4.30;;;3.15;;
54145;SDS011;65909;49.422;7.738;2023-06-24T09:40:04;4.43;;;3.15;;
54145;SDS011;65909;49.422;7.738;2023-06-24T09:42:31;5.15;;;3.28;;
54145;SDS011;65909;49.422;7.738;2023-06-24T09:44:57;3.58;;;3.28;;
54145;SDS011;65909;49.422;7.738;2023-06-24T09:47:22;3.95;;;3.50;;
54145;SDS011;65909;49.422;7.738;2023-06-24T09:49:50;3.53;;;3.08;;
54145;SDS011;65909;49.422;7.738;2023-06-24T09:52:19;4.25;;;3.20;;
54145;SDS011;65909;49.422;7.738;2023-06-24T09:54:46;3.78;;;3.30;;
54145;SDS011;65909;49.422;7.738;2023-06-24T09:57:15;3.55;;;3.25;;
54145;SDS011;65909;49.422;7.738;2023-06-24T09:59:45;4.05;;;3.58;;
54145;SDS011;65909;49.422;7.738;2023-06-24T10:02:12;5.22;;;3.13;;
54145;SDS011;65909;49.422;7.738;2023-06-24T10:04:40;3.42;;;2.97;;
54145;SDS011;65909;49.422;7.738;2023-06-24T10:07:06;5.75;;;3.70;;
54145;SDS011;65909;49.422;7.738;2023-06-24T10:09:32;4.10;;;3.10;;
54145;SDS011;65909;49.422;7.738;2023-06-24T10:11:57;3.20;;;2.75;;
54145;SDS011;65909;49.422;7.738;2023-06-24T10:14:23;3.30;;;2.70;;
54145;SDS011;65909;49.422;7.738;2023-06-24T10:16:48;3.67;;;2.92;;
54145;SDS011;65909;49.422;7.738;2023-06-24T10:19:20;5.07;;;3.28;;
54145;SDS011;65909;49.422;7.738;2023-06-24T10:21:52;3.63;;;2.55;;
54145;SDS011;65909;49.422;7.738;2023-06-24T10:24:30;3.70;;;3.08;;
54145;SDS011;65909;49.422;7.738;2023-06-24T10:27:07;5.82;;;3.78;;
54145;SDS011;65909;49.422;7.738;2023-06-24T10:29:37;4.93;;;3.08;;
54145;SDS011;65909;49.422;7.738;2023-06-24T10:32:06;4.80;;;3.13;;
54145;SDS011;65909;49.422;7.738;2023-06-24T10:34:42;4.60;;;3.38;;
54145;SDS011;65909;49.422;7.738;2023-06-24T10:39:56;4.72;;;3.38;;
54145;SDS011;65909;49.422;7.738;2023-06-24T10:42:37;5.45;;;2.80;;
54145;SDS011;65909;49.422;7.738;2023-06-24T10:47:41;4.82;;;2.95;;
54145;SDS011;65909;49.422;7.738;2023-06-24T10:50:09;3.17;;;2.78;;
54145;SDS011;65909;49.422;7.738;2023-06-24T10:52:40;6.40;;;3.17;;
54145;SDS011;65909;49.422;7.738;2023-06-24T10:55:07;5.38;;;3.53;;
54145;SDS011;65909;49.422;7.738;2023-06-24T10:57:33;3.97;;;2.90;;
54145;SDS011;65909;49.422;7.738;2023-06-24T10:59:59;6.32;;;3.17;;
54145;SDS011;65909;49.422;7.738;2023-06-24T11:02:26;6.10;;;3.53;;
54145;SDS011;65909;49.422;7.738;2023-06-24T11:04:53;4.10;;;3.17;;
54145;SDS011;65909;49.422;7.738;2023-06-24T11:07:20;5.63;;;2.97;;
54145;SDS011;65909;49.422;7.738;2023-06-24T11:09:54;3.97;;;3.05;;
54145;SDS011;65909;49.422;7.738;2023-06-24T11:14:56;5.35;;;2.95;;
54145;SDS011;65909;49.422;7.738;2023-06-24T11:17:23;4.95;;;2.35;;
54145;SDS011;65909;49.422;7.738;2023-06-24T11:19:48;4.25;;;3.28;;
54145;SDS011;65909;49.422;7.738;2023-06-24T11:22:14;4.20;;;3.33;;
54145;SDS011;65909;49.422;7.738;2023-06-24T11:24:40;3.67;;;2.83;;
54145;SDS011;65909;49.422;7.738;2023-06-24T11:27:06;4.50;;;3.22;;
54145;SDS011;65909;49.422;7.738;2023-06-24T11:29:32;3.78;;;2.80;;
54145;SDS011;65909;49.422;7.738;2023-06-24T11:32:01;3.30;;;2.75;;
54145;SDS011;65909;49.422;7.738;2023-06-24T11:34:27;3.25;;;2.95;;
54145;SDS011;65909;49.422;7.738;2023-06-24T11:36:53;3.72;;;3.30;;
54145;SDS011;65909;49.422;7.738;2023-06-24T11:39:25;2.90;;;2.40;;
54145;SDS011;65909;49.422;7.738;2023-06-24T11:41:52;3.42;;;2.53;;
54145;SDS011;65909;49.422;7.738;2023-06-24T11:44:21;3.70;;;3.00;;
54145;SDS011;65909;49.422;7.738;2023-06-24T11:46:49;4.35;;;2.83;;
54145;SDS011;65909;49.422;7.738;2023-06-24T11:49:14;4.72;;;2.90;;
54145;SDS011;65909;49.422;7.738;2023-06-24T11:51:47;5.22;;;2.83;;
54145;SDS011;65909;49.422;7.738;2023-06-24T11:54:14;4.65;;;3.15;;
54145;SDS011;65909;49.422;7.738;2023-06-24T11:56:48;3.70;;;2.72;;
54145;SDS011;65909;49.422;7.738;2023-06-24T11:59:23;4.57;;;3.20;;
54145;SDS011;65909;49.422;7.738;2023-06-24T12:01:55;3.78;;;3.15;;
54145;SDS011;65909;49.422;7.738;2023-06-24T12:04:22;5.82;;;3.15;;
54145;SDS011;65909;49.422;7.738;2023-06-24T12:06:53;4.47;;;3.17;;
54145;SDS011;65909;49.422;7.738;2023-06-24T12:09:18;3.75;;;3.00;;
54145;SDS011;65909;49.422;7.738;2023-06-24T12:11:44;4.15;;;2.95;;
54145;SDS011;65909;49.422;7.738;2023-06-24T12:14:10;3.88;;;3.33;;
54145;SDS011;65909;49.422;7.738;2023-06-24T12:16:35;4.68;;;3.25;;
54145;SDS011;65909;49.422;7.738;2023-06-24T12:19:01;3.97;;;3.30;;
54145;SDS011;65909;49.422;7.738;2023-06-24T12:21:27;3.88;;;3.10;;
54145;SDS011;65909;49.422;7.738;2023-06-24T12:23:52;4.65;;;3.17;;
54145;SDS011;65909;49.422;7.738;2023-06-24T12:26:18;4.47;;;3.30;;
54145;SDS011;65909;49.422;7.738;2023-06-24T12:28:43;5.28;;;3.42;;
54145;SDS011;65909;49.422;7.738;2023-06-24T12:31:08;3.47;;;3.00;;
54145;SDS011;65909;49.422;7.738;2023-06-24T12:33:34;3.92;;;3.08;;
54145;SDS011;65909;49.422;7.738;2023-06-24T12:35:59;4.10;;;2.83;;
54145;SDS011;65909;49.422;7.738;2023-06-24T12:38:25;3.50;;;2.70;;
54145;SDS011;65909;49.422;7.738;2023-06-24T12:40:50;3.70;;;2.95;;
54145;SDS011;65909;49.422;7.738;2023-06-24T12:43:16;3.50;;;2.90;;
54145;SDS011;65909;49.422;7.738;2023-06-24T12:45:41;3.97;;;2.80;;
54145;SDS011;65909;49.422;7.738;2023-06-24T12:48:10;3.80;;;2.85;;
54145;SDS011;65909;49.422;7.738;2023-06-24T12:50:36;3.65;;;2.97;;
54145;SDS011;65909;49.422;7.738;2023-06-24T12:53:01;5.45;;;3.75;;
54145;SDS011;65909;49.422;7.738;2023-06-24T12:55:28;5.65;;;3.40;;
54145;SDS011;65909;49.422;7.738;2023-06-24T12:57:54;4.20;;;3.17;;
54145;SDS011;65909;49.422;7.738;2023-06-24T13:00:19;6.25;;;3.95;;
54145;SDS011;65909;49.422;7.738;2023-06-24T13:02:46;3.80;;;3.00;;
54145;SDS011;65909;49.422;7.738;2023-06-24T13:05:12;4.63;;;3.22;;
54145;SDS011;65909;49.422;7.738;2023-06-24T13:07:37;4.63;;;3.65;;
54145;SDS011;65909;49.422;7.738;2023-06-24T13:10:03;5.13;;;3.53;;
54145;SDS011;65909;49.422;7.738;2023-06-24T13:12:31;4.72;;;3.08;;
54145;SDS011;65909;49.422;7.738;2023-06-24T13:14:56;3.80;;;2.67;;
54145;SDS011;65909;49.422;7.738;2023-06-24T13:17:22;6.07;;;3.30;;
54145;SDS011;65909;49.422;7.738;2023-06-24T13:19:47;4.20;;;2.88;;
54145;SDS011;65909;49.422;7.738;2023-06-24T13:22:12;3.67;;;3.20;;
54145;SDS011;65909;49.422;7.738;2023-06-24T13:24:38;11.23;;;3.53;;
54145;SDS011;65909;49.422;7.738;2023-06-24T13:27:03;5.10;;;3.03;;
54145;SDS011;65909;49.422;7.738;2023-06-24T13:29:29;3.78;;;3.10;;
54145;SDS011;65909;49.422;7.738;2023-06-24T13:31:54;6.35;;;3.53;;
54145;SDS011;65909;49.422;7.738;2023-06-24T13:34:20;4.80;;;3.05;;
54145;SDS011;65909;49.422;7.738;2023-06-24T13:36:45;6.03;;;3.60;;
54145;SDS011;65909;49.422;7.738;2023-06-24T13:39:11;4.93;;;3.70;;
54145;SDS011;65909;49.422;7.738;2023-06-24T13:41:37;5.38;;;3.22;;
54145;SDS011;65909;49.422;7.738;2023-06-24T13:44:03;4.05;;;3.40;;
54145;SDS011;65909;49.422;7.738;2023-06-24T13:46:29;3.40;;;2.80;;
54145;SDS011;65909;49.422;7.738;2023-06-24T13:48:56;6.90;;;3.50;;
54145;SDS011;65909;49.422;7.738;2023-06-24T13:51:23;7.40;;;3.38;;
54145;SDS011;65909;49.422;7.738;2023-06-24T13:53:49;3.70;;;3.30;;
54145;SDS011;65909;49.422;7.738;2023-06-24T13:56:16;5.00;;;3.33;;
54145;SDS011;65909;49.422;7.738;2023-06-24T13:58:42;4.43;;;3.47;;
54145;SDS011;65909;49.422;7.738;2023-06-24T14:01:08;4.22;;;3.22;;
54145;SDS011;65909;49.422;7.738;2023-06-24T14:03:33;4.25;;;3.38;;
54145;SDS011;65909;49.422;7.738;2023-06-24T14:05:59;4.43;;;3.58;;
54145;SDS011;65909;49.422;7.738;2023-06-24T14:08:26;5.28;;;3.13;;
54145;SDS011;65909;49.422;7.738;2023-06-24T14:10:52;4.68;;;3.00;;
54145;SDS011;65909;49.422;7.738;2023-06-24T14:13:17;3.85;;;3.13;;
54145;SDS011;65909;49.422;7.738;2023-06-24T14:15:43;5.93;;;3.33;;
54145;SDS011;65909;49.422;7.738;2023-06-24T14:18:09;4.82;;;3.53;;
54145;SDS011;65909;49.422;7.738;2023-06-24T14:20:34;4.18;;;3.00;;
54145;SDS011;65909;49.422;7.738;2023-06-24T14:23:00;4.13;;;3.45;;
54145;SDS011;65909;49.422;7.738;2023-06-24T14:25:26;4.93;;;3.50;;
54145;SDS011;65909;49.422;7.738;2023-06-24T14:27:51;4.30;;;3.15;;
54145;SDS011;65909;49.422;7.738;2023-06-24T14:30:17;5.13;;;3.70;;
54145;SDS011;65909;49.422;7.738;2023-06-24T14:32:42;4.57;;;3.65;;
54145;SDS011;65909;49.422;7.738;2023-06-24T14:35:08;4.20;;;3.00;;
54145;SDS011;65909;49.422;7.738;2023-06-24T14:37:33;4.45;;;3.30;;
54145;SDS011;65909;49.422;7.738;2023-06-24T14:39:59;4.00;;;3.25;;
54145;SDS011;65909;49.422;7.738;2023-06-24T14:42:24;4.15;;;3.15;;
54145;SDS011;65909;49.422;7.738;2023-06-24T14:44:49;4.28;;;3.55;;
54145;SDS011;65909;49.422;7.738;2023-06-24T14:47:15;5.68;;;3.25;;
54145;SDS011;65909;49.422;7.738;2023-06-24T14:49:40;3.47;;;3.10;;
54145;SDS011;65909;49.422;7.738;2023-06-24T14:52:05;4.88;;;3.10;;
54145;SDS011;65909;49.422;7.738;2023-06-24T14:54:31;5.57;;;3.38;;
54145;SDS011;65909;49.422;7.738;2023-06-24T14:56:56;6.97;;;3.38;;
54145;SDS011;65909;49.422;7.738;2023-06-24T14:59:22;4.03;;;3.20;;